Rp Zug — HE7351 — position and weather

sailwx.info

Track history (hours):
 
Tides and Currents Weather Stations Pressure Air Temp Water Temp Dewpoint Dewpoint Depression Visibility Wind Speed Wind Dir Waves Ship Positions

Rp Zug

Last reported at 2016-May-02 07:30 UTC. Time now 2016-May-02 08:17 UTC.
Position N 52°25' E 004°45'.

Length 110 m; draft 2.7 m.

Type: Tanker. MMSI: 269057351.

Date/timePositionNaut miles runAvg speedWind from/ knotsBaromVisibWave heightAir tempDewpointWater temp
2016-May-02 07:30N 52°25' E 004°45'0 0.0
2016-May-02 06:33N 52°25' E 004°45'0 0.0
2016-May-02 05:33N 52°25' E 004°45'0 0.0
2016-May-02 04:27N 52°25' E 004°45'0 0.0
2016-May-02 03:33N 52°25' E 004°45'0 0.0
2016-May-02 02:33N 52°25' E 004°45'0 0.0
2016-May-02 01:33N 52°25' E 004°45'0 0.0
2016-May-02 00:33N 52°25' E 004°45'0 0.0
2016-May-01 23:33N 52°25' E 004°45'0 0.0
2016-May-01 22:33N 52°25' E 004°45'0 0.0
2016-May-01 21:33N 52°25' E 004°45'0 0.0
2016-May-01 20:33N 52°25' E 004°45'0 0.0
2016-May-01 19:33N 52°25' E 004°45'0 0.0
2016-May-01 18:33N 52°25' E 004°45'0 0.0
2016-May-01 17:33N 52°25' E 004°45'0 0.0
2016-May-01 16:30N 52°25' E 004°45'0 0.0
2016-May-01 15:33N 52°25' E 004°45'0 0.0
2016-May-01 14:33N 52°25' E 004°45'0 0.0
2016-May-01 13:33N 52°25' E 004°45'0 0.0
2016-May-01 12:33N 52°25' E 004°45'0 0.0
2016-May-01 11:33N 52°25' E 004°45'0 0.0
2016-May-01 10:33N 52°25' E 004°45'4 3.8
2016-May-01 09:33N 52°25' E 004°51'8 8.2
2016-May-01 08:33N 52°20' E 005°01'9 8.8
2016-May-01 07:33N 52°11' E 004°60'8 8.3
2016-May-01 06:33N 52°03' E 005°06'4 3.8
2016-May-01 05:33N 51°60' E 005°04'6 5.8
2016-May-01 04:32N 51°57' E 004°56'7 7.1
2016-May-01 03:33N 51°55' E 004°45'7 7.4
2016-May-01 02:33N 51°54' E 004°33'6 6.4
2016-May-01 01:33N 51°54' E 004°23'1 0.1
2016-Apr-30 17:32N 51°53' E 004°22'0 0.0
2016-Apr-30 16:26N 51°53' E 004°22'0 0.0
2016-Apr-30 15:34N 51°53' E 004°22'0 0.0
2016-Apr-30 14:33N 51°53' E 004°22'0 0.0
2016-Apr-30 13:34N 51°53' E 004°22'0 0.0
2016-Apr-30 12:33N 51°53' E 004°22'0 0.4
2016-Apr-30 11:34N 51°54' E 004°22'0 0.0
2016-Apr-30 10:33N 51°54' E 004°22'0 0.0
2016-Apr-30 09:34N 51°54' E 004°22'0 0.0
2016-Apr-30 07:34N 51°54' E 004°22'0 0.0
2016-Apr-30 06:33N 51°54' E 004°22'0 0.0
2016-Apr-30 05:34N 51°54' E 004°22'0 0.0
2016-Apr-30 04:34N 51°54' E 004°22'0 0.0
2016-Apr-30 03:33N 51°54' E 004°22'0 0.0
2016-Apr-30 02:34N 51°54' E 004°22'0 0.0
2016-Apr-30 01:34N 51°54' E 004°22'0 0.0
2016-Apr-30 00:33N 51°54' E 004°22'0 0.0
2016-Apr-29 23:34N 51°54' E 004°22'0 0.0
2016-Apr-29 22:33N 51°54' E 004°22'0 0.0
2016-Apr-29 21:33N 51°54' E 004°22'0 0.0
2016-Apr-29 20:34N 51°54' E 004°22'0 0.0
2016-Apr-29 19:34N 51°54' E 004°22'0 0.0
2016-Apr-29 18:33N 51°54' E 004°22'0 0.0
2016-Apr-29 17:34N 51°54' E 004°22'0 0.0
2016-Apr-29 16:34N 51°54' E 004°22'0 0.0
2016-Apr-29 15:34N 51°54' E 004°22'0 0.0
2016-Apr-29 14:34N 51°54' E 004°22'0 0.0
2016-Apr-29 13:34N 51°54' E 004°22'0 0.0
2016-Apr-29 12:33N 51°54' E 004°22'0 0.0
2016-Apr-29 11:33N 51°54' E 004°22'0 0.0
2016-Apr-29 10:34N 51°54' E 004°22'0 0.1
2016-Apr-29 09:32N 51°54' E 004°22'0 0.0
2016-Apr-29 08:32N 51°54' E 004°22'0 0.0
2016-Apr-29 07:32N 51°54' E 004°22'0 0.0
2016-Apr-29 06:32N 51°54' E 004°22'0 0.0
2016-Apr-29 05:33N 51°54' E 004°22'0 0.0
2016-Apr-29 04:33N 51°54' E 004°22'0 0.0
2016-Apr-29 03:33N 51°54' E 004°22'0 0.0
2016-Apr-29 02:33N 51°54' E 004°22'0 0.0
2016-Apr-29 01:33N 51°54' E 004°22'4 4.2
2016-Apr-29 00:33N 51°54' E 004°29'9 9.0
2016-Apr-28 23:33N 51°49' E 004°41'1212.0
2016-Apr-28 22:33N 51°49' E 005°00'3511.3
2016-Apr-28 19:27N 51°52' E 005°57'1211.5
2016-Apr-28 18:25N 51°50' E 006°15'1011.3
2016-Apr-28 17:33N 51°42' E 006°27'1010.3
2016-Apr-28 16:33N 51°34' E 006°36'9 8.5
2016-Apr-28 15:33N 51°27' E 006°43'10 9.7
2016-Apr-28 14:32N 51°17' E 006°42'8 8.7
2016-Apr-28 13:34N 51°09' E 006°48'12 9.7
2016-Apr-28 12:17N 50°59' E 006°59'5 6.4
2016-Apr-28 11:33N 50°54' E 006°59'5 0.1
2016-Apr-26 14:11N 50°49' E 006°60'2 0.1
2016-Apr-25 23:07N 50°51' E 006°59'0 0.4
2016-Apr-25 22:29N 50°51' E 006°59'0 0.0
2016-Apr-25 21:28N 50°51' E 006°59'0 0.0
2016-Apr-25 20:33N 50°51' E 006°59'0 0.0
2016-Apr-25 19:32N 50°51' E 006°59'0 0.0
2016-Apr-25 18:31N 50°51' E 006°59'7 7.7
2016-Apr-25 17:33N 50°45' E 007°06'5 0.1
2016-Apr-23 19:08N 50°41' E 007°11'3 5.1
2016-Apr-23 18:32N 50°43' E 007°09'5 5.0
2016-Apr-23 17:33N 50°47' E 007°03'5 4.4
2016-Apr-23 16:27N 50°51' E 006°59'3 3.6
2016-Apr-23 15:30N 50°54' E 007°02'16 4.2
2016-Apr-23 11:33N 51°09' E 006°51'2 2.4
2016-Apr-23 10:34N 51°10' E 006°48'4 4.2
2016-Apr-23 09:34N 51°13' E 006°43'7 3.2
2016-Apr-23 07:19N 51°20' E 006°42'2 2.5
2016-Apr-23 06:32N 51°22' E 006°42'7 3.8
2016-Apr-23 04:33N 51°30' E 006°43'4 4.5
2016-Apr-23 03:33N 51°34' E 006°41'4 3.8
2016-Apr-23 02:33N 51°36' E 006°36'4 3.9
2016-Apr-23 01:33N 51°39' E 006°33'9 4.4
2016-Apr-22 23:28N 51°45' E 006°22'5 5.4
2016-Apr-22 22:29N 51°49' E 006°16'50 5.0
2016-Apr-22 12:33N 51°50' E 004°56'9 7.6
2016-Apr-22 11:22N 51°49' E 004°41'6 7.4
2016-Apr-22 10:34N 51°54' E 004°35'7 6.5
2016-Apr-22 09:33N 51°54' E 004°24'2 1.6
2016-Apr-22 08:31N 51°53' E 004°22'0 0.0
2016-Apr-22 07:33N 51°53' E 004°22'  
Track history (hours):
 
Tides and Currents Weather Stations Pressure Air Temp Water Temp Dewpoint Dewpoint Depression Visibility Wind Speed Wind Dir Waves Ship Positions

Rp Zug

Last reported at 2016-May-02 07:30 UTC. Time now 2016-May-02 08:17 UTC.
Position N 52°25' E 004°45'.

Length 110 m; draft 2.7 m.

Type: Tanker. MMSI: 269057351.

Date/timePositionNaut miles runAvg speedWind from/ knotsBaromVisibWave heightAir tempDewpointWater temp
2016-May-02 07:30N 52°25' E 004°45'0 0.0
2016-May-02 06:33N 52°25' E 004°45'0 0.0
2016-May-02 05:33N 52°25' E 004°45'0 0.0
2016-May-02 04:27N 52°25' E 004°45'0 0.0
2016-May-02 03:33N 52°25' E 004°45'0 0.0
2016-May-02 02:33N 52°25' E 004°45'0 0.0
2016-May-02 01:33N 52°25' E 004°45'0 0.0
2016-May-02 00:33N 52°25' E 004°45'0 0.0
2016-May-01 23:33N 52°25' E 004°45'0 0.0
2016-May-01 22:33N 52°25' E 004°45'0 0.0
2016-May-01 21:33N 52°25' E 004°45'0 0.0
2016-May-01 20:33N 52°25' E 004°45'0 0.0
2016-May-01 19:33N 52°25' E 004°45'0 0.0
2016-May-01 18:33N 52°25' E 004°45'0 0.0
2016-May-01 17:33N 52°25' E 004°45'0 0.0
2016-May-01 16:30N 52°25' E 004°45'0 0.0
2016-May-01 15:33N 52°25' E 004°45'0 0.0
2016-May-01 14:33N 52°25' E 004°45'0 0.0
2016-May-01 13:33N 52°25' E 004°45'0 0.0
2016-May-01 12:33N 52°25' E 004°45'0 0.0
2016-May-01 11:33N 52°25' E 004°45'0 0.0
2016-May-01 10:33N 52°25' E 004°45'4 3.8
2016-May-01 09:33N 52°25' E 004°51'8 8.2
2016-May-01 08:33N 52°20' E 005°01'9 8.8
2016-May-01 07:33N 52°11' E 004°60'8 8.3
2016-May-01 06:33N 52°03' E 005°06'4 3.8
2016-May-01 05:33N 51°60' E 005°04'6 5.8
2016-May-01 04:32N 51°57' E 004°56'7 7.1
2016-May-01 03:33N 51°55' E 004°45'7 7.4
2016-May-01 02:33N 51°54' E 004°33'6 6.4
2016-May-01 01:33N 51°54' E 004°23'1 0.1
2016-Apr-30 17:32N 51°53' E 004°22'0 0.0
2016-Apr-30 16:26N 51°53' E 004°22'0 0.0
2016-Apr-30 15:34N 51°53' E 004°22'0 0.0
2016-Apr-30 14:33N 51°53' E 004°22'0 0.0
2016-Apr-30 13:34N 51°53' E 004°22'0 0.0
2016-Apr-30 12:33N 51°53' E 004°22'0 0.4
2016-Apr-30 11:34N 51°54' E 004°22'0 0.0
2016-Apr-30 10:33N 51°54' E 004°22'0 0.0
2016-Apr-30 09:34N 51°54' E 004°22'0 0.0
2016-Apr-30 07:34N 51°54' E 004°22'0 0.0
2016-Apr-30 06:33N 51°54' E 004°22'0 0.0
2016-Apr-30 05:34N 51°54' E 004°22'0 0.0
2016-Apr-30 04:34N 51°54' E 004°22'0 0.0
2016-Apr-30 03:33N 51°54' E 004°22'0 0.0
2016-Apr-30 02:34N 51°54' E 004°22'0 0.0
2016-Apr-30 01:34N 51°54' E 004°22'0 0.0
2016-Apr-30 00:33N 51°54' E 004°22'0 0.0
2016-Apr-29 23:34N 51°54' E 004°22'0 0.0
2016-Apr-29 22:33N 51°54' E 004°22'0 0.0
2016-Apr-29 21:33N 51°54' E 004°22'0 0.0
2016-Apr-29 20:34N 51°54' E 004°22'0 0.0
2016-Apr-29 19:34N 51°54' E 004°22'0 0.0
2016-Apr-29 18:33N 51°54' E 004°22'0 0.0
2016-Apr-29 17:34N 51°54' E 004°22'0 0.0
2016-Apr-29 16:34N 51°54' E 004°22'0 0.0
2016-Apr-29 15:34N 51°54' E 004°22'0 0.0
2016-Apr-29 14:34N 51°54' E 004°22'0 0.0
2016-Apr-29 13:34N 51°54' E 004°22'0 0.0
2016-Apr-29 12:33N 51°54' E 004°22'0 0.0
2016-Apr-29 11:33N 51°54' E 004°22'0 0.0
2016-Apr-29 10:34N 51°54' E 004°22'0 0.1
2016-Apr-29 09:32N 51°54' E 004°22'0 0.0
2016-Apr-29 08:32N 51°54' E 004°22'0 0.0
2016-Apr-29 07:32N 51°54' E 004°22'0 0.0
2016-Apr-29 06:32N 51°54' E 004°22'0 0.0
2016-Apr-29 05:33N 51°54' E 004°22'0 0.0
2016-Apr-29 04:33N 51°54' E 004°22'0 0.0
2016-Apr-29 03:33N 51°54' E 004°22'0 0.0
2016-Apr-29 02:33N 51°54' E 004°22'0 0.0
2016-Apr-29 01:33N 51°54' E 004°22'4 4.2
2016-Apr-29 00:33N 51°54' E 004°29'9 9.0
2016-Apr-28 23:33N 51°49' E 004°41'1212.0
2016-Apr-28 22:33N 51°49' E 005°00'3511.3
2016-Apr-28 19:27N 51°52' E 005°57'1211.5
2016-Apr-28 18:25N 51°50' E 006°15'1011.3
2016-Apr-28 17:33N 51°42' E 006°27'1010.3
2016-Apr-28 16:33N 51°34' E 006°36'9 8.5
2016-Apr-28 15:33N 51°27' E 006°43'10 9.7
2016-Apr-28 14:32N 51°17' E 006°42'8 8.7
2016-Apr-28 13:34N 51°09' E 006°48'12 9.7
2016-Apr-28 12:17N 50°59' E 006°59'5 6.4
2016-Apr-28 11:33N 50°54' E 006°59'5 0.1
2016-Apr-26 14:11N 50°49' E 006°60'2 0.1
2016-Apr-25 23:07N 50°51' E 006°59'0 0.4
2016-Apr-25 22:29N 50°51' E 006°59'0 0.0
2016-Apr-25 21:28N 50°51' E 006°59'0 0.0
2016-Apr-25 20:33N 50°51' E 006°59'0 0.0
2016-Apr-25 19:32N 50°51' E 006°59'0 0.0
2016-Apr-25 18:31N 50°51' E 006°59'7 7.7
2016-Apr-25 17:33N 50°45' E 007°06'5 0.1
2016-Apr-23 19:08N 50°41' E 007°11'3 5.1
2016-Apr-23 18:32N 50°43' E 007°09'5 5.0
2016-Apr-23 17:33N 50°47' E 007°03'5 4.4
2016-Apr-23 16:27N 50°51' E 006°59'3 3.6
2016-Apr-23 15:30N 50°54' E 007°02'16 4.2
2016-Apr-23 11:33N 51°09' E 006°51'2 2.4
2016-Apr-23 10:34N 51°10' E 006°48'4 4.2
2016-Apr-23 09:34N 51°13' E 006°43'7 3.2
2016-Apr-23 07:19N 51°20' E 006°42'2 2.5
2016-Apr-23 06:32N 51°22' E 006°42'7 3.8
2016-Apr-23 04:33N 51°30' E 006°43'4 4.5
2016-Apr-23 03:33N 51°34' E 006°41'4 3.8
2016-Apr-23 02:33N 51°36' E 006°36'4 3.9
2016-Apr-23 01:33N 51°39' E 006°33'9 4.4
2016-Apr-22 23:28N 51°45' E 006°22'5 5.4
2016-Apr-22 22:29N 51°49' E 006°16'50 5.0
2016-Apr-22 12:33N 51°50' E 004°56'9 7.6
2016-Apr-22 11:22N 51°49' E 004°41'6 7.4
2016-Apr-22 10:34N 51°54' E 004°35'7 6.5
2016-Apr-22 09:33N 51°54' E 004°24'2 1.6
2016-Apr-22 08:31N 51°53' E 004°22'0 0.0
2016-Apr-22 07:33N 51°53' E 004°22'  

Dump ship's entire track history